Terminal Aerodrome Forecast
Issued by NWS

Home | Current Version | Previous Version | Graphics & Text | Print | Product List | Glossary On
Versions: 1 2 3 4 5 6 7 8 9 10 11 12 13 14 15 16 17 18 19 20
000
FTUS43 KGRB 240846 AAB
TAFRHI
TAF AMD
KRHI 240846Z 2409/2506 VRB03KT P6SM SCT003
      TEMPO 2409/2413 3SM BR BKN003
     FM241300 06004KT P6SM SCT025
     FM241800 03005KT P6SM SCT040
     FM242100 14003KT P6SM SCT060
     FM250200 VRB03KT P6SM SKC=

USA.gov is the U.S. government's official web portal to all federal, state and local government web resources and services.